createdAt,value
2023-04-26T00:02:00.701Z,6.74
2023-04-26T00:05:04.251Z,6.68
2023-04-26T00:08:07.367Z,6.61
2023-04-26T00:11:10.191Z,6.54
2023-04-26T00:14:13.199Z,6.44
2023-04-26T00:17:16.132Z,6.36
2023-04-26T00:20:19.029Z,6.28
2023-04-26T00:23:21.812Z,6.22
2023-04-26T00:26:24.947Z,6.16
2023-04-26T00:29:27.906Z,6.09
2023-04-26T00:32:31.740Z,6.00
2023-04-26T00:35:34.570Z,5.92
2023-04-26T00:38:37.349Z,5.88
2023-04-26T00:41:40.382Z,5.78
2023-04-26T00:44:43.295Z,5.75
2023-04-26T00:47:47.120Z,5.69
2023-04-26T00:50:50.002Z,5.69
2023-04-26T00:53:52.876Z,5.68
2023-04-26T00:56:55.715Z,5.64
2023-04-26T00:59:58.868Z,5.59
2023-04-26T01:03:04.760Z,5.57
2023-04-26T01:06:07.682Z,5.54
2023-04-26T01:09:15.652Z,5.48
2023-04-26T01:12:19.801Z,5.42
2023-04-26T01:15:22.727Z,5.40
2023-04-26T01:18:25.809Z,5.40
2023-04-26T01:21:28.994Z,5.35
2023-04-26T01:24:36.193Z,5.29
2023-04-26T01:27:40.182Z,5.25
2023-04-26T01:30:43.430Z,5.19
2023-04-26T01:33:46.206Z,5.09
2023-04-26T01:36:49.002Z,5.02
2023-04-26T01:39:52.412Z,4.97
2023-04-26T01:42:56.583Z,4.92
2023-04-26T01:45:59.493Z,4.89
2023-04-26T01:49:06.049Z,4.80
2023-04-26T01:52:08.904Z,4.78
2023-04-26T01:55:11.687Z,4.73
2023-04-26T01:58:14.500Z,4.71
2023-04-26T02:01:17.412Z,4.69
2023-04-26T02:04:20.987Z,4.68
2023-04-26T02:07:23.801Z,4.66
2023-04-26T02:10:32.137Z,4.62
2023-04-26T02:13:34.935Z,4.58
2023-04-26T02:16:39.886Z,4.55
2023-04-26T02:19:42.768Z,4.53
2023-04-26T02:22:46.145Z,4.52
2023-04-26T02:25:51.270Z,4.49
2023-04-26T02:28:54.305Z,4.49
2023-04-26T02:31:58.962Z,4.49
2023-04-26T02:35:01.825Z,4.45
2023-04-26T02:38:04.943Z,4.46
2023-04-26T02:41:07.810Z,4.46
2023-04-26T02:44:11.459Z,4.43
2023-04-26T02:47:14.529Z,4.41
2023-04-26T02:50:17.340Z,4.42
2023-04-26T02:53:20.974Z,4.42
2023-04-26T02:56:23.828Z,4.41
2023-04-26T02:59:27.234Z,4.40
2023-04-26T03:02:31.549Z,4.39
2023-04-26T03:05:34.529Z,4.36
2023-04-26T03:08:37.490Z,4.36
2023-04-26T03:11:40.703Z,4.33
2023-04-26T03:14:43.625Z,4.29
2023-04-26T03:17:46.566Z,4.23
2023-04-26T03:20:49.382Z,4.19
2023-04-26T03:23:52.236Z,4.13
2023-04-26T03:26:55.397Z,4.05
2023-04-26T03:29:58.704Z,3.99
2023-04-26T03:33:02.952Z,3.93
2023-04-26T03:36:06.853Z,3.93
2023-04-26T03:39:09.956Z,3.92
2023-04-26T03:42:13.160Z,3.89
2023-04-26T03:45:16.606Z,3.88
2023-04-26T03:48:19.394Z,3.86
2023-04-26T03:51:22.247Z,3.87
2023-04-26T03:54:25.101Z,3.88
2023-04-26T03:57:27.980Z,3.91
2023-04-26T04:00:31.023Z,3.96
2023-04-26T04:03:33.905Z,4.12
2023-04-26T04:06:38.437Z,4.33
2023-04-26T04:09:41.283Z,4.56
2023-04-26T04:12:44.261Z,4.84
2023-04-26T04:15:47.341Z,5.15
2023-04-26T04:18:50.553Z,5.46
2023-04-26T04:21:53.711Z,5.77
2023-04-26T04:24:57.519Z,6.07
2023-04-26T04:28:02.834Z,6.38
2023-04-26T04:31:06.046Z,6.68
2023-04-26T04:34:09.134Z,7.00
2023-04-26T04:37:14.490Z,7.29
2023-04-26T04:40:17.873Z,7.57
2023-04-26T04:43:23.610Z,7.85
2023-04-26T04:46:26.563Z,8.14
2023-04-26T04:49:31.560Z,8.39
2023-04-26T04:52:34.783Z,8.60
2023-04-26T04:55:37.899Z,8.64
2023-04-26T04:58:40.859Z,8.76
2023-04-26T05:01:44.152Z,8.82
2023-04-26T05:04:50.269Z,9.02
2023-04-26T05:07:53.515Z,9.11
2023-04-26T05:10:56.903Z,9.20
2023-04-26T05:13:59.803Z,9.26
2023-04-26T05:17:03.126Z,9.35
2023-04-26T05:20:08.135Z,9.56
2023-04-26T05:23:11.510Z,9.65
2023-04-26T05:26:16.842Z,9.62
2023-04-26T05:29:33.376Z,9.75
2023-04-26T05:32:59.104Z,9.85
2023-04-26T05:36:16.770Z,9.92
2023-04-26T05:39:20.762Z,10.05
2023-04-26T05:42:23.949Z,10.24
2023-04-26T05:45:27.286Z,10.36
2023-04-26T05:48:30.158Z,10.45
2023-04-26T05:51:33.269Z,10.56
2023-04-26T05:54:36.170Z,10.66
2023-04-26T05:57:39.586Z,10.89
2023-04-26T06:00:43.429Z,11.07
2023-04-26T06:03:47.221Z,11.24
2023-04-26T06:06:51.410Z,11.29
2023-04-26T06:09:57.113Z,11.36
2023-04-26T06:12:59.898Z,11.45
2023-04-26T06:16:04.791Z,11.62
2023-04-26T06:19:08.245Z,11.62
2023-04-26T06:22:11.081Z,11.70
2023-04-26T06:25:15.432Z,11.87
2023-04-26T06:28:18.622Z,12.03
2023-04-26T06:31:23.013Z,12.10
2023-04-26T06:34:26.409Z,12.03
2023-04-26T06:37:29.472Z,11.75
2023-04-26T06:40:32.500Z,11.57
2023-04-26T06:43:35.576Z,11.64
2023-04-26T06:46:43.114Z,11.94
2023-04-26T06:49:46.402Z,12.15
2023-04-26T06:52:49.279Z,12.21
2023-04-26T06:55:53.585Z,12.18
2023-04-26T06:59:00.966Z,12.13
2023-04-26T07:02:03.962Z,12.12
2023-04-26T07:05:07.528Z,12.09
2023-04-26T07:08:10.942Z,12.09
2023-04-26T07:11:13.865Z,12.06
2023-04-26T07:14:17.645Z,12.08
2023-04-26T07:17:21.624Z,12.13
2023-04-26T07:20:24.457Z,12.32
2023-04-26T07:23:29.680Z,12.55
2023-04-26T07:26:32.567Z,12.67
2023-04-26T07:29:35.299Z,12.75
2023-04-26T07:32:38.190Z,13.05
2023-04-26T07:35:41.163Z,13.31
2023-04-26T07:38:43.927Z,13.46
2023-04-26T07:41:46.705Z,13.36
2023-04-26T07:44:49.570Z,13.14
2023-04-26T07:47:52.399Z,12.86
2023-04-26T07:50:56.066Z,12.51
2023-04-26T07:53:58.942Z,12.20
2023-04-26T07:57:02.098Z,12.19
2023-04-26T08:00:10.220Z,12.50
2023-04-26T08:03:18.065Z,12.41
2023-04-26T08:06:22.566Z,12.24
2023-04-26T08:09:25.573Z,11.92
2023-04-26T08:12:28.282Z,12.13
2023-04-26T08:15:32.638Z,12.22
2023-04-26T08:18:35.706Z,12.05
2023-04-26T08:21:38.639Z,11.92
2023-04-26T08:24:41.494Z,12.23
2023-04-26T08:27:44.948Z,12.55
2023-04-26T08:30:47.922Z,12.52
2023-04-26T08:33:51.052Z,12.45
2023-04-26T08:36:54.060Z,12.59
2023-04-26T08:39:57.142Z,12.81
2023-04-26T08:42:59.987Z,12.88
2023-04-26T08:46:08.569Z,13.18
2023-04-26T08:49:41.485Z,13.56
2023-04-26T08:52:45.338Z,13.72
2023-04-26T08:55:49.653Z,13.35
2023-04-26T08:58:53.697Z,13.31
2023-04-26T09:01:58.150Z,13.37
2023-04-26T09:05:01.162Z,13.59
2023-04-26T09:08:07.320Z,13.40
2023-04-26T09:11:10.225Z,13.07
2023-04-26T09:14:13.074Z,12.74
2023-04-26T09:17:34.327Z,12.56
2023-04-26T09:20:37.201Z,12.39
2023-04-26T09:23:58.371Z,12.44
2023-04-26T09:27:05.718Z,12.69
2023-04-26T09:30:17.502Z,13.00
2023-04-26T09:33:20.610Z,13.33
2023-04-26T09:36:23.434Z,13.15
2023-04-26T09:39:38.657Z,13.12
2023-04-26T09:42:41.858Z,13.28
2023-04-26T09:45:56.919Z,13.53
2023-04-26T09:49:03.523Z,13.47
2023-04-26T09:52:06.835Z,13.15
2023-04-26T09:55:14.373Z,12.86
2023-04-26T09:58:23.354Z,12.80
2023-04-26T10:01:30.050Z,12.61
2023-04-26T10:04:33.762Z,12.40
2023-04-26T10:07:36.817Z,12.21
2023-04-26T10:10:41.289Z,11.99
2023-04-26T10:13:44.872Z,11.82
2023-04-26T10:16:48.964Z,11.55
2023-04-26T10:19:58.187Z,11.35
2023-04-26T10:23:02.792Z,11.18
2023-04-26T10:26:05.898Z,11.04
2023-04-26T10:29:09.180Z,10.94
2023-04-26T10:32:16.744Z,10.74
2023-04-26T10:35:20.257Z,10.63
2023-04-26T10:38:23.134Z,10.88
2023-04-26T10:41:31.582Z,11.04
2023-04-26T10:44:40.316Z,11.06
2023-04-26T10:47:43.080Z,10.99
2023-04-26T10:51:01.418Z,10.88
2023-04-26T10:54:04.532Z,10.98
2023-04-26T10:57:07.376Z,11.11
2023-04-26T11:00:10.960Z,11.15
2023-04-26T11:03:15.359Z,11.11
2023-04-26T11:06:18.265Z,11.17
2023-04-26T11:09:41.366Z,11.20
2023-04-26T11:13:01.064Z,11.16
2023-04-26T11:16:09.768Z,11.05
2023-04-26T11:19:12.634Z,10.84
2023-04-26T11:22:15.638Z,10.67
2023-04-26T11:25:18.577Z,10.45
2023-04-26T11:28:23.339Z,10.35
2023-04-26T11:31:26.171Z,10.32
2023-04-26T11:34:35.966Z,10.42
2023-04-26T11:37:38.702Z,10.61
2023-04-26T11:40:42.303Z,10.64
2023-04-26T11:43:45.185Z,10.63
2023-04-26T11:46:49.164Z,10.57
2023-04-26T11:49:52.403Z,10.45
2023-04-26T11:52:56.602Z,10.39
2023-04-26T11:55:59.397Z,10.39
2023-04-26T11:59:02.252Z,10.42
2023-04-26T12:02:08.857Z,10.37
2023-04-26T12:05:18.446Z,10.21
2023-04-26T12:08:25.640Z,10.15
2023-04-26T12:11:28.833Z,10.20
2023-04-26T12:14:35.174Z,10.17
2023-04-26T12:17:37.998Z,10.16
2023-04-26T12:20:42.512Z,10.26
2023-04-26T12:23:47.927Z,10.54
2023-04-26T12:26:50.857Z,10.83
2023-04-26T12:29:53.612Z,10.92
2023-04-26T12:33:05.743Z,10.86
2023-04-26T12:36:18.138Z,10.76
2023-04-26T12:39:20.942Z,10.76
2023-04-26T12:42:23.877Z,10.72
2023-04-26T12:45:29.611Z,10.68
2023-04-26T12:48:32.435Z,10.74
2023-04-26T12:51:35.414Z,10.91
2023-04-26T12:54:38.323Z,10.80
2023-04-26T12:57:42.883Z,10.76
2023-04-26T13:00:45.606Z,11.02
2023-04-26T13:03:48.816Z,11.35
2023-04-26T13:06:52.031Z,11.51
2023-04-26T13:09:54.748Z,11.40
2023-04-26T13:12:58.164Z,11.20
2023-04-26T13:16:01.128Z,11.07
2023-04-26T13:19:04.009Z,11.13
2023-04-26T13:22:08.189Z,11.12
2023-04-26T13:25:11.296Z,11.00
2023-04-26T13:28:14.344Z,10.86
2023-04-26T13:31:18.175Z,10.70
2023-04-26T13:34:21.094Z,10.63
2023-04-26T13:37:23.975Z,10.58
2023-04-26T13:40:26.833Z,10.48
2023-04-26T13:43:29.654Z,10.40
2023-04-26T13:46:32.462Z,10.34
2023-04-26T13:49:35.289Z,10.32
2023-04-26T13:52:38.061Z,10.22
2023-04-26T13:55:40.813Z,10.11
2023-04-26T13:58:44.436Z,10.03
2023-04-26T14:01:47.237Z,10.06
2023-04-26T14:04:50.429Z,10.12
2023-04-26T14:07:55.105Z,10.09
2023-04-26T14:10:58.331Z,10.00
2023-04-26T14:14:01.101Z,9.95
2023-04-26T14:17:03.985Z,9.95
2023-04-26T14:20:08.488Z,10.10
2023-04-26T14:23:11.428Z,10.25
2023-04-26T14:26:14.394Z,10.22
2023-04-26T14:29:17.175Z,10.28
2023-04-26T14:32:20.015Z,10.40
2023-04-26T14:35:22.804Z,10.46
2023-04-26T14:38:25.857Z,10.43
2023-04-26T14:41:28.670Z,10.35
2023-04-26T14:44:31.495Z,10.18
2023-04-26T14:47:34.264Z,10.00
2023-04-26T14:50:36.990Z,9.90
2023-04-26T14:53:40.012Z,9.79
2023-04-26T14:56:42.787Z,9.72
2023-04-26T14:59:45.497Z,9.63
2023-04-26T15:02:48.435Z,9.51
2023-04-26T15:05:51.464Z,9.40
2023-04-26T15:08:54.241Z,9.35
2023-04-26T15:11:57.020Z,9.35
2023-04-26T15:14:59.814Z,9.37
2023-04-26T15:18:03.564Z,9.45
2023-04-26T15:21:06.513Z,9.58
2023-04-26T15:24:09.299Z,9.70
2023-04-26T15:27:12.839Z,9.75
2023-04-26T15:30:15.789Z,9.76
2023-04-26T15:33:18.834Z,9.74
2023-04-26T15:36:22.702Z,9.77
2023-04-26T15:39:25.804Z,9.83
2023-04-26T15:42:28.565Z,9.85
2023-04-26T15:45:31.333Z,9.82
2023-04-26T15:48:34.140Z,9.74
2023-04-26T15:51:36.883Z,9.62
2023-04-26T15:54:39.691Z,9.50
2023-04-26T15:57:42.705Z,9.35
2023-04-26T16:00:45.531Z,9.21
2023-04-26T16:03:49.524Z,9.12
2023-04-26T16:06:52.379Z,9.13
2023-04-26T16:09:55.141Z,9.15
2023-04-26T16:12:58.944Z,9.15
2023-04-26T16:16:01.750Z,9.19
2023-04-26T16:19:04.840Z,9.19
2023-04-26T16:22:07.575Z,9.21
2023-04-26T16:25:10.628Z,9.22
2023-04-26T16:28:13.366Z,9.20
2023-04-26T16:31:16.138Z,9.12
2023-04-26T16:34:20.012Z,9.11
2023-04-26T16:37:22.839Z,9.08
2023-04-26T16:40:26.355Z,9.07
2023-04-26T16:43:30.405Z,9.06
2023-04-26T16:46:33.177Z,9.04
2023-04-26T16:49:35.973Z,9.03
2023-04-26T16:52:39.020Z,9.00
2023-04-26T16:55:41.794Z,8.97
2023-04-26T16:58:44.581Z,8.93
2023-04-26T17:01:47.566Z,8.90
2023-04-26T17:04:50.569Z,8.90
2023-04-26T17:07:53.427Z,8.89
2023-04-26T17:10:56.533Z,8.88
2023-04-26T17:13:59.319Z,8.85
2023-04-26T17:17:02.078Z,8.83
2023-04-26T17:20:10.143Z,8.78
2023-04-26T17:23:14.030Z,8.68
2023-04-26T17:26:16.915Z,8.63
2023-04-26T17:29:19.669Z,8.57
2023-04-26T17:32:22.554Z,8.54
2023-04-26T17:35:25.774Z,8.42
2023-04-26T17:38:28.643Z,8.35
2023-04-26T17:41:31.377Z,8.28
2023-04-26T17:44:34.172Z,8.23
2023-04-26T17:47:37.151Z,8.17
2023-04-26T17:50:39.946Z,8.12
2023-04-26T17:53:42.843Z,8.07
2023-04-26T17:56:46.164Z,8.02
2023-04-26T17:59:49.810Z,7.98
2023-04-26T18:02:53.974Z,7.94
2023-04-26T18:05:57.286Z,7.92
2023-04-26T18:08:59.998Z,7.91
2023-04-26T18:12:02.985Z,7.87
2023-04-26T18:15:06.898Z,7.83
2023-04-26T18:18:09.757Z,7.81
2023-04-26T18:21:13.105Z,7.77
2023-04-26T18:24:16.802Z,7.75
2023-04-26T18:27:19.585Z,7.73
2023-04-26T18:30:22.413Z,7.67
2023-04-26T18:33:26.137Z,7.62
2023-04-26T18:36:30.011Z,7.59
2023-04-26T18:39:33.050Z,7.55
2023-04-26T18:42:36.833Z,7.52
2023-04-26T18:45:41.749Z,7.51
2023-04-26T18:48:44.458Z,7.50
2023-04-26T18:51:47.241Z,7.44
2023-04-26T18:54:49.955Z,7.38
2023-04-26T18:57:52.786Z,7.28
2023-04-26T19:00:55.564Z,7.18
2023-04-26T19:03:58.501Z,7.10
2023-04-26T19:07:01.528Z,7.01
2023-04-26T19:10:05.332Z,6.94
2023-04-26T19:13:08.124Z,6.87
2023-04-26T19:16:11.942Z,6.80
2023-04-26T19:19:14.906Z,6.76
2023-04-26T19:22:17.960Z,6.68
2023-04-26T19:25:23.184Z,6.60
2023-04-26T19:28:25.887Z,6.55
2023-04-26T19:31:29.848Z,6.51
2023-04-26T19:34:35.035Z,6.47
2023-04-26T19:37:37.832Z,6.38
2023-04-26T19:40:42.507Z,6.34
2023-04-26T19:43:45.431Z,6.32
2023-04-26T19:46:48.346Z,6.26
2023-04-26T19:49:53.168Z,6.20
2023-04-26T19:52:55.987Z,6.10
2023-04-26T19:55:58.778Z,6.03
2023-04-26T19:59:01.550Z,5.98
2023-04-26T20:02:06.633Z,5.94
2023-04-26T20:05:10.143Z,5.89
2023-04-26T20:08:12.887Z,5.81
2023-04-26T20:11:16.875Z,5.76
2023-04-26T20:14:19.699Z,5.72
2023-04-26T20:17:22.797Z,5.64
2023-04-26T20:20:25.652Z,5.58
2023-04-26T20:23:28.507Z,5.55
2023-04-26T20:26:31.269Z,5.55
2023-04-26T20:29:34.017Z,5.53
2023-04-26T20:32:36.790Z,5.52
2023-04-26T20:35:39.774Z,5.46
2023-04-26T20:38:42.563Z,5.43
2023-04-26T20:41:45.949Z,5.41
2023-04-26T20:44:48.796Z,5.39
2023-04-26T20:47:51.779Z,5.42
2023-04-26T20:50:55.187Z,5.47
2023-04-26T20:53:58.019Z,5.50
2023-04-26T20:57:01.693Z,5.50
2023-04-26T21:00:10.623Z,5.52
2023-04-26T21:03:13.482Z,5.54
2023-04-26T21:06:16.283Z,5.57
2023-04-26T21:09:19.026Z,5.59
2023-04-26T21:12:21.928Z,5.58
2023-04-26T21:15:24.727Z,5.60
2023-04-26T21:18:27.529Z,5.62
2023-04-26T21:21:30.840Z,5.62
2023-04-26T21:24:33.576Z,5.66
2023-04-26T21:27:36.745Z,5.69
2023-04-26T21:30:39.530Z,5.75
2023-04-26T21:33:42.339Z,5.79
2023-04-26T21:36:45.065Z,5.82
2023-04-26T21:39:47.933Z,5.84
2023-04-26T21:43:03.994Z,5.84
2023-04-26T21:46:08.130Z,5.86
2023-04-26T21:49:11.648Z,5.86
2023-04-26T21:52:14.839Z,5.86
2023-04-26T21:55:17.564Z,5.86
2023-04-26T21:58:21.579Z,5.86
2023-04-26T22:01:24.887Z,5.87
2023-04-26T22:04:27.993Z,5.85
2023-04-26T22:07:31.553Z,5.79
2023-04-26T22:10:35.510Z,5.72
2023-04-26T22:13:38.248Z,5.63
2023-04-26T22:16:41.028Z,5.56
2023-04-26T22:19:43.889Z,5.46
2023-04-26T22:22:46.708Z,5.34
2023-04-26T22:25:49.506Z,5.24
2023-04-26T22:28:52.294Z,5.12
2023-04-26T22:31:55.663Z,5.03
2023-04-26T22:34:58.495Z,4.97
2023-04-26T22:38:01.569Z,4.89
2023-04-26T22:41:07.401Z,4.84
2023-04-26T22:44:10.335Z,4.74
2023-04-26T22:47:13.139Z,4.65
2023-04-26T22:50:15.885Z,4.57
2023-04-26T22:53:18.819Z,4.52
2023-04-26T22:56:22.450Z,4.45
2023-04-26T22:59:25.301Z,4.40
2023-04-26T23:02:28.323Z,4.36
2023-04-26T23:05:31.200Z,4.32
2023-04-26T23:08:33.942Z,4.28
2023-04-26T23:11:36.685Z,4.24
2023-04-26T23:14:39.490Z,4.20
2023-04-26T23:17:42.499Z,4.17
2023-04-26T23:20:45.284Z,4.13
2023-04-26T23:23:48.086Z,4.13
2023-04-26T23:26:51.030Z,4.12
2023-04-26T23:29:53.759Z,4.11
2023-04-26T23:32:56.629Z,4.10
2023-04-26T23:35:59.541Z,4.14
2023-04-26T23:39:02.285Z,4.18
2023-04-26T23:42:05.389Z,4.19
2023-04-26T23:45:09.817Z,4.20
2023-04-26T23:48:16.901Z,4.23
2023-04-26T23:51:19.907Z,4.23
2023-04-26T23:54:22.815Z,4.26
2023-04-26T23:57:25.759Z,4.27
